Edroy, TX

7:56 AM CDT on August 22, 2014 (GMT -0500)
Home | Change Station
CLOSE
Current Station
Personal Weather Station
Location: Taft, TX
Elevation: 66 ft
Nearby Weather Stations
Active Advisory: Special Statement

Elev 66 ft 27.98 °N, 97.39 °W | Updated 1 second ago

Partly Cloudy
Partly Cloudy
81.3 °F
Feels Like 87 °F
N
0.0
Wind Variable Wind from South
Gusts 0.0 mph

Today
High -- | Low -- °F
--% Chance of Precip.
Yesterday
High -- | Low -- °F
Precip. -- in
7:03 AM 8:01 PM
Waning Crescent, 8% visible
Pressure 30.04 in
Visibility 8.0 miles
Clouds Few 1000 ft
Few 25000 ft
Heat Index 87 °F
Dew Point 73 °F
Humidity 77%
Rainfall 0.00 in
Snow Depth Not available.
UV 0 out of 12
Pollen 7.00 out of 12
Ozone Good
Flu Activity Not available.
METAR KCRP 221251Z 16003KT 8SM FEW010 FEW250 26/25 A3004 RMK AO2 SLP170 T02610250

More Conditions Fewer Conditions

Pressure 30.04 in
Visibility 8.0 miles
Clouds Few 1000 ft
Few 25000 ft
Heat Index 87 °F
Dew Point 73 °F
Humidity 77%
Rainfall 0.00 in
Snow Depth Not available.
UV 0 out of 12
Pollen 7.00 out of 12
Ozone Good
Flu Activity Not available.
METAR KCRP 221251Z 16003KT 8SM FEW010 FEW250 26/25 A3004 RMK AO2 SLP170 T02610250

More Conditions Fewer Conditions

10-Day Weather Forecast

Almanac

Astronomy

Aug. 22, 2014 Rise Set
Actual Time 7:03 AM CDT 8:01 PM CDT
Civil Twilight 6:39 AM CDT 8:25 PM CDT
Nautical Twilight 6:10 AM CDT 8:54 PM CDT
Astronomical Twilight 5:41 AM CDT 9:23 PM CDT
Moon 4:33 AM CDT 6:06 PM CDT
Length of Visible Light 13h 46m
Length of Day
12h 57m
Tomorrow will be 1m 31s shorter.
Waning Crescent, 8% of the Moon is Illuminated
Today
Waning Crescent
Aug 25
New
Sep 2
First Quarter
Sep 8
Full
Sep 15
Last Quarter

Today's Extremes

State Highs State Lows

Community

WunderPhotos

Upload Photos

1,746,158 photos uploaded!

WunderBlogs® & News

Nearby

Air Quality

  Air Quality AQ Index Pollutant
Yesterday Good
OZONE
Current Good
OZONE
Friday Good
PM10
Friday Good
OZONE
Saturday Good
PM10
Saturday Good
OZONE
Sunday Good
PM10
Sunday Good
OZONE

Snow Depth

Station Depth Elevation
No new snow has been reported.

Earthquake Activity

City Distance Mag. Time & Date
No recent earthquake activity has been reported nearby.
Minimum magnitude displayed is 2.5.

Coastal Water Temperatures

Place Temperature
Baffin Bay Point of Rocks, TX 79.0 °F
South Bird Island, TX 84.0 °F
Packery Channel, TX 82.0 °F
Port Aransas, TX 82.9 °F
Malaquite Beach (Corpus Christi), TX 80.1 °F

Nearby Weather Stations